Fourth Quarter — WDG3250 — position and weather

sailwx.info

Track history (hours):
 
Tides and Currents Weather Stations Pressure Air Temp Water Temp Dewpoint Dewpoint Depression Visibility Wind Speed Wind Dir Waves Ship Positions

Fourth Quarter

Owner: Kathryn Rae Towing, Inc., Destrehan, LA. More information available from US FCC via Universal Licensing System and Coast Guard Vessel Documentation Center.

Last reported at 2014-Nov-21 04:12 UTC. Time now 2014-Nov-21 12:10 UTC.
Position N 30°03' W 090°35'.

Length 21 m; draft 2.7 m.

Type: Towing. MMSI: 367524080.

Date/timePositionNaut miles runAvg speedWind from/ knotsBaromVisibWave heightAir tempDewpointWater temp
2014-Nov-21 04:12N 30°03' W 090°35'  
2014-Nov-15 05:25N 30°03' W 090°35'28 0.8
2014-Nov-13 17:14N 29°54' W 090°05'0 0.0
2014-Nov-13 16:32N 29°54' W 090°05'0 0.0
2014-Nov-13 15:33N 29°54' W 090°05'0 0.0
2014-Nov-13 14:32N 29°54' W 090°05'0 0.0
2014-Nov-13 13:31N 29°54' W 090°05'0 0.0
2014-Nov-13 12:33N 29°54' W 090°05'0 0.0
2014-Nov-13 11:33N 29°54' W 090°05'0 0.0
2014-Nov-13 10:32N 29°54' W 090°05'0 0.0
2014-Nov-13 09:29N 29°54' W 090°05'0 0.0
2014-Nov-13 08:14N 29°54' W 090°05'0 0.0
2014-Nov-12 10:32N 29°54' W 090°05'0 0.0
2014-Nov-12 09:25N 29°54' W 090°05'0 0.0
2014-Nov-12 08:10N 29°54' W 090°05'0 0.0
2014-Nov-12 07:29N 29°54' W 090°05'0 0.0
2014-Nov-12 06:31N 29°54' W 090°05'2 1.7
2014-Nov-12 05:34N 29°53' W 090°04'6 2.5
2014-Nov-12 03:17N 29°55' W 089°58'5 6.5
2014-Nov-12 02:33N 29°58' W 090°03'28 1.4
2014-Nov-11 06:31N 30°03' W 090°34'0 0.0
2014-Nov-11 05:21N 30°03' W 090°34'0 0.3
2014-Nov-11 04:22N 30°03' W 090°34'  
Track history (hours):
 
Tides and Currents Weather Stations Pressure Air Temp Water Temp Dewpoint Dewpoint Depression Visibility Wind Speed Wind Dir Waves Ship Positions

Fourth Quarter

Owner: Kathryn Rae Towing, Inc., Destrehan, LA. More information available from US FCC via Universal Licensing System and Coast Guard Vessel Documentation Center.

Last reported at 2014-Nov-21 04:12 UTC. Time now 2014-Nov-21 12:10 UTC.
Position N 30°03' W 090°35'.

Length 21 m; draft 2.7 m.

Type: Towing. MMSI: 367524080.

Date/timePositionNaut miles runAvg speedWind from/ knotsBaromVisibWave heightAir tempDewpointWater temp
2014-Nov-21 04:12N 30°03' W 090°35'  
2014-Nov-15 05:25N 30°03' W 090°35'28 0.8
2014-Nov-13 17:14N 29°54' W 090°05'0 0.0
2014-Nov-13 16:32N 29°54' W 090°05'0 0.0
2014-Nov-13 15:33N 29°54' W 090°05'0 0.0
2014-Nov-13 14:32N 29°54' W 090°05'0 0.0
2014-Nov-13 13:31N 29°54' W 090°05'0 0.0
2014-Nov-13 12:33N 29°54' W 090°05'0 0.0
2014-Nov-13 11:33N 29°54' W 090°05'0 0.0
2014-Nov-13 10:32N 29°54' W 090°05'0 0.0
2014-Nov-13 09:29N 29°54' W 090°05'0 0.0
2014-Nov-13 08:14N 29°54' W 090°05'0 0.0
2014-Nov-12 10:32N 29°54' W 090°05'0 0.0
2014-Nov-12 09:25N 29°54' W 090°05'0 0.0
2014-Nov-12 08:10N 29°54' W 090°05'0 0.0
2014-Nov-12 07:29N 29°54' W 090°05'0 0.0
2014-Nov-12 06:31N 29°54' W 090°05'2 1.7
2014-Nov-12 05:34N 29°53' W 090°04'6 2.5
2014-Nov-12 03:17N 29°55' W 089°58'5 6.5
2014-Nov-12 02:33N 29°58' W 090°03'28 1.4
2014-Nov-11 06:31N 30°03' W 090°34'0 0.0
2014-Nov-11 05:21N 30°03' W 090°34'0 0.3
2014-Nov-11 04:22N 30°03' W 090°34'  

Dump ship's entire track history